Simpson, IL (62985)

3:13 AM CST on February 13, 2016 (GMT -0600)
RAWS | | Change Station
CLOSE
Current Station
Personal Weather Station
Location: Simpson, IL
Elevation: 540 ft
Nearby Weather Stations

Elev 540 ft 37.44 °N, 88.67 °W | Updated 1 hour ago

Clear
Clear
20.0 °F
Feels Like 9 °F
N
10.0
Wind Variable Wind from NNW
Gusts 16.0 mph

Today
High -- | Low -- °F
--% Chance of Precip.
Yesterday
High -- | Low -- °F
Precip. -- in
Pressure 30.54 in
Visibility 10.0 miles
Clouds Clear
Windchill 9 °F
Dew Point 8.0 °F
Humidity 59%
Rainfall in
Snow Depth Not available.
6:47 AM 5:31 PM
Waxing Crescent, 29% visible
METAR KM30 130855Z AUTO 34011G16KT 10SM CLR M06/M12 A3054 RMK AO2 T10651125
Pressure 30.54 in
Visibility 10.0 miles
Clouds Clear
Windchill 9 °F
Dew Point 8.0 °F
Humidity 59%
Rainfall in
Snow Depth Not available.
6:47 AM 5:31 PM
Waxing Crescent, 29% visible
METAR KM30 130855Z AUTO 34011G16KT 10SM CLR M06/M12 A3054 RMK AO2 T10651125

10-Day Weather Forecast

Almanac

Astronomy

Feb. 13, 2016 Rise Set
Actual Time
Civil Twilight
Nautical Twilight
Astronomical Twilight
Moon
Length of Visible Light
Length of Day
Tomorrow will be .
, % of the Moon is Illuminated

Today's Extremes

State Highs State Lows

Community

WunderPhotos

Upload Photos

1,892,536 photos uploaded!

WunderBlog® & News

Nearby

Air Quality

  Air Quality AQ Index Pollutant
Not available.

Snow Depth

Station Depth Elevation

Earthquake Activity

City Distance Mag. Time & Date
Minimum magnitude displayed is 2.5.

Coastal Water Temperatures

Place Temperature

Stations

Nearby Weather Stations

Station Location Temp. Windchill Dew Point Humidity Wind Precip. Elev Updated Type
                   

Watches & Warnings

There are currently no watches in effect.